sensor_id;sensor_type;location;lat;lon;timestamp;temperature;humidity
16505;HTU21D;8365;51.030;4.696;2023-05-07T00:00:22;17.40;118.11
16505;HTU21D;8365;51.030;4.696;2023-05-07T00:02:53;17.41;118.39
16505;HTU21D;8365;51.030;4.696;2023-05-07T00:05:23;17.44;118.02
16505;HTU21D;8365;51.030;4.696;2023-05-07T00:07:53;17.46;117.79
16505;HTU21D;8365;51.030;4.696;2023-05-07T00:10:24;17.51;117.79
16505;HTU21D;8365;51.030;4.696;2023-05-07T00:12:55;17.53;118.13
16505;HTU21D;8365;51.030;4.696;2023-05-07T00:15:26;17.52;117.62
16505;HTU21D;8365;51.030;4.696;2023-05-07T00:17:56;17.51;117.54
16505;HTU21D;8365;51.030;4.696;2023-05-07T00:20:28;17.51;117.18
16505;HTU21D;8365;51.030;4.696;2023-05-07T00:22:59;17.46;118.63
16505;HTU21D;8365;51.030;4.696;2023-05-07T00:25:29;17.39;118.27
16505;HTU21D;8365;51.030;4.696;2023-05-07T00:28:00;17.37;118.01
16505;HTU21D;8365;51.030;4.696;2023-05-07T00:30:33;17.36;118.38
16505;HTU21D;8365;51.030;4.696;2023-05-07T00:33:04;17.43;118.55
16505;HTU21D;8365;51.030;4.696;2023-05-07T00:35:34;17.47;118.11
16505;HTU21D;8365;51.030;4.696;2023-05-07T00:38:05;17.49;118.73
16505;HTU21D;8365;51.030;4.696;2023-05-07T00:40:35;17.49;118.99
16505;HTU21D;8365;51.030;4.696;2023-05-07T00:43:06;17.53;117.99
16505;HTU21D;8365;51.030;4.696;2023-05-07T00:45:37;17.54;118.85
16505;HTU21D;8365;51.030;4.696;2023-05-07T00:48:07;17.58;118.58
16505;HTU21D;8365;51.030;4.696;2023-05-07T00:50:38;17.58;117.70
16505;HTU21D;8365;51.030;4.696;2023-05-07T00:53:09;17.54;117.57
16505;HTU21D;8365;51.030;4.696;2023-05-07T00:55:39;17.47;118.57
16505;HTU21D;8365;51.030;4.696;2023-05-07T00:58:10;17.53;117.61
16505;HTU21D;8365;51.030;4.696;2023-05-07T01:00:40;17.50;118.31
16505;HTU21D;8365;51.030;4.696;2023-05-07T01:03:11;17.51;118.80
16505;HTU21D;8365;51.030;4.696;2023-05-07T01:05:42;17.49;117.66
16505;HTU21D;8365;51.030;4.696;2023-05-07T01:08:15;17.53;116.96
16505;HTU21D;8365;51.030;4.696;2023-05-07T01:10:49;17.56;117.66
16505;HTU21D;8365;51.030;4.696;2023-05-07T01:13:20;17.52;117.84
16505;HTU21D;8365;51.030;4.696;2023-05-07T01:15:50;17.45;118.60
16505;HTU21D;8365;51.030;4.696;2023-05-07T01:18:23;17.48;118.02
16505;HTU21D;8365;51.030;4.696;2023-05-07T01:20:58;17.43;118.89
16505;HTU21D;8365;51.030;4.696;2023-05-07T01:23:29;17.47;118.77
16505;HTU21D;8365;51.030;4.696;2023-05-07T01:26:00;17.44;118.73
16505;HTU21D;8365;51.030;4.696;2023-05-07T01:28:31;17.39;118.66
16505;HTU21D;8365;51.030;4.696;2023-05-07T01:31:03;17.34;118.99
16505;HTU21D;8365;51.030;4.696;2023-05-07T01:33:36;17.36;118.99
16505;HTU21D;8365;51.030;4.696;2023-05-07T01:36:13;17.35;118.99
16505;HTU21D;8365;51.030;4.696;2023-05-07T01:38:45;17.38;118.99
16505;HTU21D;8365;51.030;4.696;2023-05-07T01:41:15;17.41;118.99
16505;HTU21D;8365;51.030;4.696;2023-05-07T01:43:47;17.48;118.99
16505;HTU21D;8365;51.030;4.696;2023-05-07T01:46:18;17.41;118.99
16505;HTU21D;8365;51.030;4.696;2023-05-07T01:48:49;17.46;118.99
16505;HTU21D;8365;51.030;4.696;2023-05-07T01:51:21;17.37;118.99
16505;HTU21D;8365;51.030;4.696;2023-05-07T01:53:52;17.40;118.99
16505;HTU21D;8365;51.030;4.696;2023-05-07T01:56:25;17.36;118.99
16505;HTU21D;8365;51.030;4.696;2023-05-07T01:58:56;17.32;118.99
16505;HTU21D;8365;51.030;4.696;2023-05-07T02:01:26;17.24;118.99
16505;HTU21D;8365;51.030;4.696;2023-05-07T02:03:57;16.99;118.99
16505;HTU21D;8365;51.030;4.696;2023-05-07T02:06:27;16.93;118.99
16505;HTU21D;8365;51.030;4.696;2023-05-07T02:09:01;16.59;118.99
16505;HTU21D;8365;51.030;4.696;2023-05-07T02:11:31;16.67;118.99
16505;HTU21D;8365;51.030;4.696;2023-05-07T02:14:02;16.66;118.99
16505;HTU21D;8365;51.030;4.696;2023-05-07T02:16:32;16.74;118.99
16505;HTU21D;8365;51.030;4.696;2023-05-07T02:19:02;16.70;118.99
16505;HTU21D;8365;51.030;4.696;2023-05-07T02:21:35;16.65;118.99
16505;HTU21D;8365;51.030;4.696;2023-05-07T02:24:08;16.51;118.99
16505;HTU21D;8365;51.030;4.696;2023-05-07T02:26:40;16.64;118.99
16505;HTU21D;8365;51.030;4.696;2023-05-07T02:29:11;16.66;118.99
16505;HTU21D;8365;51.030;4.696;2023-05-07T02:31:44;16.82;118.99
16505;HTU21D;8365;51.030;4.696;2023-05-07T02:34:14;16.98;118.99
16505;HTU21D;8365;51.030;4.696;2023-05-07T02:36:45;17.05;118.99
16505;HTU21D;8365;51.030;4.696;2023-05-07T02:39:16;17.16;118.99
16505;HTU21D;8365;51.030;4.696;2023-05-07T02:41:47;17.17;118.99
16505;HTU21D;8365;51.030;4.696;2023-05-07T02:44:21;17.18;118.99
16505;HTU21D;8365;51.030;4.696;2023-05-07T02:46:52;17.21;118.99
16505;HTU21D;8365;51.030;4.696;2023-05-07T02:49:22;17.29;118.99
16505;HTU21D;8365;51.030;4.696;2023-05-07T02:51:53;17.30;118.99
16505;HTU21D;8365;51.030;4.696;2023-05-07T02:54:23;17.34;118.99
16505;HTU21D;8365;51.030;4.696;2023-05-07T02:56:54;17.38;118.99
16505;HTU21D;8365;51.030;4.696;2023-05-07T02:59:24;17.40;118.99
16505;HTU21D;8365;51.030;4.696;2023-05-07T03:01:56;17.44;118.99
16505;HTU21D;8365;51.030;4.696;2023-05-07T03:04:26;17.47;118.99
16505;HTU21D;8365;51.030;4.696;2023-05-07T03:06:57;17.43;118.99
16505;HTU21D;8365;51.030;4.696;2023-05-07T03:09:27;17.49;118.99
16505;HTU21D;8365;51.030;4.696;2023-05-07T03:11:58;17.46;118.99
16505;HTU21D;8365;51.030;4.696;2023-05-07T03:14:28;17.34;118.99
16505;HTU21D;8365;51.030;4.696;2023-05-07T03:16:59;17.40;118.99
16505;HTU21D;8365;51.030;4.696;2023-05-07T03:19:29;17.47;118.99
16505;HTU21D;8365;51.030;4.696;2023-05-07T03:22:00;17.51;118.99
16505;HTU21D;8365;51.030;4.696;2023-05-07T03:24:31;17.51;118.99
16505;HTU21D;8365;51.030;4.696;2023-05-07T03:27:01;17.34;118.99
16505;HTU21D;8365;51.030;4.696;2023-05-07T03:29:32;17.40;118.99
16505;HTU21D;8365;51.030;4.696;2023-05-07T03:32:03;17.50;118.99
16505;HTU21D;8365;51.030;4.696;2023-05-07T03:34:33;17.48;118.99
16505;HTU21D;8365;51.030;4.696;2023-05-07T03:37:05;17.54;118.99
16505;HTU21D;8365;51.030;4.696;2023-05-07T03:39:35;17.52;118.99
16505;HTU21D;8365;51.030;4.696;2023-05-07T03:42:06;17.53;118.99
16505;HTU21D;8365;51.030;4.696;2023-05-07T03:44:37;17.56;118.99
16505;HTU21D;8365;51.030;4.696;2023-05-07T03:47:07;17.55;118.99
16505;HTU21D;8365;51.030;4.696;2023-05-07T03:49:38;17.64;118.99
16505;HTU21D;8365;51.030;4.696;2023-05-07T03:52:08;17.65;118.99
16505;HTU21D;8365;51.030;4.696;2023-05-07T03:54:39;17.66;118.99
16505;HTU21D;8365;51.030;4.696;2023-05-07T03:57:09;17.64;118.99
16505;HTU21D;8365;51.030;4.696;2023-05-07T03:59:40;17.68;118.99
16505;HTU21D;8365;51.030;4.696;2023-05-07T04:02:10;17.67;118.99
16505;HTU21D;8365;51.030;4.696;2023-05-07T04:04:41;17.70;118.99
16505;HTU21D;8365;51.030;4.696;2023-05-07T04:07:11;17.68;118.99
16505;HTU21D;8365;51.030;4.696;2023-05-07T04:09:44;17.72;118.99
16505;HTU21D;8365;51.030;4.696;2023-05-07T04:12:15;17.68;118.99
16505;HTU21D;8365;51.030;4.696;2023-05-07T04:14:47;17.68;118.99
16505;HTU21D;8365;51.030;4.696;2023-05-07T04:17:18;17.70;118.99
16505;HTU21D;8365;51.030;4.696;2023-05-07T04:19:48;17.67;118.99
16505;HTU21D;8365;51.030;4.696;2023-05-07T04:22:19;17.68;118.99
16505;HTU21D;8365;51.030;4.696;2023-05-07T04:24:51;17.69;118.99
16505;HTU21D;8365;51.030;4.696;2023-05-07T04:27:22;17.69;118.99
16505;HTU21D;8365;51.030;4.696;2023-05-07T04:29:55;17.68;118.99
16505;HTU21D;8365;51.030;4.696;2023-05-07T04:32:26;17.66;118.99
16505;HTU21D;8365;51.030;4.696;2023-05-07T04:34:56;17.67;118.99
16505;HTU21D;8365;51.030;4.696;2023-05-07T04:37:27;17.66;118.99
16505;HTU21D;8365;51.030;4.696;2023-05-07T04:39:57;17.63;118.99
16505;HTU21D;8365;51.030;4.696;2023-05-07T04:42:28;17.65;118.99
16505;HTU21D;8365;51.030;4.696;2023-05-07T04:44:58;17.65;118.99
16505;HTU21D;8365;51.030;4.696;2023-05-07T04:47:29;17.67;118.99
16505;HTU21D;8365;51.030;4.696;2023-05-07T04:49:59;17.67;118.99
16505;HTU21D;8365;51.030;4.696;2023-05-07T04:52:30;17.73;118.99
16505;HTU21D;8365;51.030;4.696;2023-05-07T04:55:01;17.68;118.99
16505;HTU21D;8365;51.030;4.696;2023-05-07T04:57:32;17.49;118.99
16505;HTU21D;8365;51.030;4.696;2023-05-07T05:00:03;17.61;118.99
16505;HTU21D;8365;51.030;4.696;2023-05-07T05:02:34;17.49;118.99
16505;HTU21D;8365;51.030;4.696;2023-05-07T05:05:05;17.55;118.99
16505;HTU21D;8365;51.030;4.696;2023-05-07T05:07:36;17.51;118.99
16505;HTU21D;8365;51.030;4.696;2023-05-07T05:10:07;17.60;118.99
16505;HTU21D;8365;51.030;4.696;2023-05-07T05:12:37;17.63;118.99
16505;HTU21D;8365;51.030;4.696;2023-05-07T05:15:08;17.53;118.99
16505;HTU21D;8365;51.030;4.696;2023-05-07T05:17:40;17.28;118.99
16505;HTU21D;8365;51.030;4.696;2023-05-07T05:20:11;17.29;118.99
16505;HTU21D;8365;51.030;4.696;2023-05-07T05:22:42;17.39;118.99
16505;HTU21D;8365;51.030;4.696;2023-05-07T05:25:12;17.21;118.99
16505;HTU21D;8365;51.030;4.696;2023-05-07T05:27:43;17.10;118.99
16505;HTU21D;8365;51.030;4.696;2023-05-07T05:30:13;17.04;118.99
16505;HTU21D;8365;51.030;4.696;2023-05-07T05:32:44;17.20;118.99
16505;HTU21D;8365;51.030;4.696;2023-05-07T05:35:14;16.94;118.99
16505;HTU21D;8365;51.030;4.696;2023-05-07T05:37:45;17.35;118.99
16505;HTU21D;8365;51.030;4.696;2023-05-07T05:40:15;17.22;118.99
16505;HTU21D;8365;51.030;4.696;2023-05-07T05:42:46;17.50;118.99
16505;HTU21D;8365;51.030;4.696;2023-05-07T05:45:19;17.31;118.99
16505;HTU21D;8365;51.030;4.696;2023-05-07T05:47:49;17.44;118.99
16505;HTU21D;8365;51.030;4.696;2023-05-07T05:50:19;17.59;118.99
16505;HTU21D;8365;51.030;4.696;2023-05-07T05:52:50;17.55;118.99
16505;HTU21D;8365;51.030;4.696;2023-05-07T05:55:21;17.79;118.99
16505;HTU21D;8365;51.030;4.696;2023-05-07T05:57:52;17.54;118.99
16505;HTU21D;8365;51.030;4.696;2023-05-07T06:00:22;17.56;118.99
16505;HTU21D;8365;51.030;4.696;2023-05-07T06:02:53;17.66;118.99
16505;HTU21D;8365;51.030;4.696;2023-05-07T06:05:23;17.70;118.99
16505;HTU21D;8365;51.030;4.696;2023-05-07T06:07:54;17.64;118.99
16505;HTU21D;8365;51.030;4.696;2023-05-07T06:10:24;18.02;118.99
16505;HTU21D;8365;51.030;4.696;2023-05-07T06:12:57;18.19;118.99
16505;HTU21D;8365;51.030;4.696;2023-05-07T06:15:27;18.19;118.99
16505;HTU21D;8365;51.030;4.696;2023-05-07T06:17:58;18.35;118.99
16505;HTU21D;8365;51.030;4.696;2023-05-07T06:20:28;18.27;118.99
16505;HTU21D;8365;51.030;4.696;2023-05-07T06:22:59;18.34;118.38
16505;HTU21D;8365;51.030;4.696;2023-05-07T06:25:29;18.43;118.96
16505;HTU21D;8365;51.030;4.696;2023-05-07T06:28:00;18.21;118.99
16505;HTU21D;8365;51.030;4.696;2023-05-07T06:30:30;18.24;118.99
16505;HTU21D;8365;51.030;4.696;2023-05-07T06:33:00;18.46;118.56
16505;HTU21D;8365;51.030;4.696;2023-05-07T06:35:33;18.44;117.27
16505;HTU21D;8365;51.030;4.696;2023-05-07T06:38:04;18.68;117.20
16505;HTU21D;8365;51.030;4.696;2023-05-07T06:40:34;18.77;117.41
16505;HTU21D;8365;51.030;4.696;2023-05-07T06:43:05;18.73;116.64
16505;HTU21D;8365;51.030;4.696;2023-05-07T06:45:35;18.96;115.29
16505;HTU21D;8365;51.030;4.696;2023-05-07T06:48:06;18.97;115.48
16505;HTU21D;8365;51.030;4.696;2023-05-07T06:50:36;18.85;115.63
16505;HTU21D;8365;51.030;4.696;2023-05-07T06:53:06;18.84;114.79
16505;HTU21D;8365;51.030;4.696;2023-05-07T06:55:37;18.81;115.03
16505;HTU21D;8365;51.030;4.696;2023-05-07T06:58:08;18.52;117.56
16505;HTU21D;8365;51.030;4.696;2023-05-07T07:00:41;18.08;118.99
16505;HTU21D;8365;51.030;4.696;2023-05-07T07:03:11;18.14;118.99
16505;HTU21D;8365;51.030;4.696;2023-05-07T07:05:44;18.04;118.99
16505;HTU21D;8365;51.030;4.696;2023-05-07T07:08:15;18.32;118.99
16505;HTU21D;8365;51.030;4.696;2023-05-07T07:10:48;18.54;117.72
16505;HTU21D;8365;51.030;4.696;2023-05-07T07:13:18;18.63;117.74
16505;HTU21D;8365;51.030;4.696;2023-05-07T07:15:49;18.69;116.70
16505;HTU21D;8365;51.030;4.696;2023-05-07T07:18:20;18.69;116.60
16505;HTU21D;8365;51.030;4.696;2023-05-07T07:20:50;18.85;116.27
16505;HTU21D;8365;51.030;4.696;2023-05-07T07:23:21;18.71;116.02
16505;HTU21D;8365;51.030;4.696;2023-05-07T07:25:52;18.80;115.41
16505;HTU21D;8365;51.030;4.696;2023-05-07T07:28:22;18.26;118.99
16505;HTU21D;8365;51.030;4.696;2023-05-07T07:30:52;18.36;118.39
16505;HTU21D;8365;51.030;4.696;2023-05-07T07:33:23;18.30;118.59
16505;HTU21D;8365;51.030;4.696;2023-05-07T07:35:55;18.62;116.76
16505;HTU21D;8365;51.030;4.696;2023-05-07T07:38:25;18.73;115.51
16505;HTU21D;8365;51.030;4.696;2023-05-07T07:40:56;18.67;116.41
16505;HTU21D;8365;51.030;4.696;2023-05-07T07:43:26;18.76;115.41
16505;HTU21D;8365;51.030;4.696;2023-05-07T07:45:57;18.95;114.28
16505;HTU21D;8365;51.030;4.696;2023-05-07T07:48:28;18.98;114.11
16505;HTU21D;8365;51.030;4.696;2023-05-07T07:50:58;19.05;114.67
16505;HTU21D;8365;51.030;4.696;2023-05-07T07:53:29;19.00;112.99
16505;HTU21D;8365;51.030;4.696;2023-05-07T07:55:59;19.16;112.68
16505;HTU21D;8365;51.030;4.696;2023-05-07T07:58:30;19.15;112.07
16505;HTU21D;8365;51.030;4.696;2023-05-07T08:01:01;19.15;112.90
16505;HTU21D;8365;51.030;4.696;2023-05-07T08:03:31;19.14;113.06
16505;HTU21D;8365;51.030;4.696;2023-05-07T08:06:02;19.18;112.70
16505;HTU21D;8365;51.030;4.696;2023-05-07T08:08:33;19.13;111.25
16505;HTU21D;8365;51.030;4.696;2023-05-07T08:11:03;19.02;113.36
16505;HTU21D;8365;51.030;4.696;2023-05-07T08:13:34;19.09;112.68
16505;HTU21D;8365;51.030;4.696;2023-05-07T08:16:05;18.98;113.26
16505;HTU21D;8365;51.030;4.696;2023-05-07T08:18:38;18.88;114.24
16505;HTU21D;8365;51.030;4.696;2023-05-07T08:21:09;19.16;112.42
16505;HTU21D;8365;51.030;4.696;2023-05-07T08:23:39;18.85;114.01
16505;HTU21D;8365;51.030;4.696;2023-05-07T08:26:11;18.73;114.93
16505;HTU21D;8365;51.030;4.696;2023-05-07T08:28:42;18.92;115.82
16505;HTU21D;8365;51.030;4.696;2023-05-07T08:31:12;18.81;116.80
16505;HTU21D;8365;51.030;4.696;2023-05-07T08:33:42;18.63;117.85
16505;HTU21D;8365;51.030;4.696;2023-05-07T08:36:13;18.95;116.60
16505;HTU21D;8365;51.030;4.696;2023-05-07T08:38:43;18.96;117.34
16505;HTU21D;8365;51.030;4.696;2023-05-07T08:41:15;19.01;116.83
16505;HTU21D;8365;51.030;4.696;2023-05-07T08:43:50;18.70;118.99
16505;HTU21D;8365;51.030;4.696;2023-05-07T08:46:22;18.72;118.99
16505;HTU21D;8365;51.030;4.696;2023-05-07T08:48:52;18.47;118.99
16505;HTU21D;8365;51.030;4.696;2023-05-07T08:51:23;18.57;118.99
16505;HTU21D;8365;51.030;4.696;2023-05-07T08:53:53;18.91;118.99
16505;HTU21D;8365;51.030;4.696;2023-05-07T08:56:24;18.87;118.99
16505;HTU21D;8365;51.030;4.696;2023-05-07T08:58:55;18.92;118.99
16505;HTU21D;8365;51.030;4.696;2023-05-07T09:01:31;18.58;118.99
16505;HTU21D;8365;51.030;4.696;2023-05-07T09:04:02;18.23;118.99
16505;HTU21D;8365;51.030;4.696;2023-05-07T09:06:33;18.30;118.99
16505;HTU21D;8365;51.030;4.696;2023-05-07T09:09:04;18.43;118.99
16505;HTU21D;8365;51.030;4.696;2023-05-07T09:11:35;18.34;118.99
16505;HTU21D;8365;51.030;4.696;2023-05-07T09:14:08;18.69;118.99
16505;HTU21D;8365;51.030;4.696;2023-05-07T09:16:39;18.57;118.99
16505;HTU21D;8365;51.030;4.696;2023-05-07T09:19:09;18.29;118.99
16505;HTU21D;8365;51.030;4.696;2023-05-07T09:21:40;18.54;118.99
16505;HTU21D;8365;51.030;4.696;2023-05-07T09:24:10;18.62;118.99
16505;HTU21D;8365;51.030;4.696;2023-05-07T09:26:41;18.23;118.99
16505;HTU21D;8365;51.030;4.696;2023-05-07T09:29:11;18.43;118.99
16505;HTU21D;8365;51.030;4.696;2023-05-07T09:31:42;18.11;118.99
16505;HTU21D;8365;51.030;4.696;2023-05-07T09:34:12;18.00;118.99
16505;HTU21D;8365;51.030;4.696;2023-05-07T09:36:48;18.13;118.99
16505;HTU21D;8365;51.030;4.696;2023-05-07T09:39:18;18.25;118.99
16505;HTU21D;8365;51.030;4.696;2023-05-07T09:41:51;18.41;118.99
16505;HTU21D;8365;51.030;4.696;2023-05-07T09:44:24;18.40;118.99
16505;HTU21D;8365;51.030;4.696;2023-05-07T09:46:59;18.44;118.99
16505;HTU21D;8365;51.030;4.696;2023-05-07T09:49:30;18.56;118.99
16505;HTU21D;8365;51.030;4.696;2023-05-07T09:52:03;17.99;118.99
16505;HTU21D;8365;51.030;4.696;2023-05-07T09:54:36;17.89;118.99
16505;HTU21D;8365;51.030;4.696;2023-05-07T09:57:11;18.25;118.99
16505;HTU21D;8365;51.030;4.696;2023-05-07T09:59:43;18.38;118.99
16505;HTU21D;8365;51.030;4.696;2023-05-07T10:02:17;18.38;118.99
16505;HTU21D;8365;51.030;4.696;2023-05-07T10:04:49;18.33;118.99
16505;HTU21D;8365;51.030;4.696;2023-05-07T10:07:21;18.48;118.99
16505;HTU21D;8365;51.030;4.696;2023-05-07T10:09:52;18.46;118.99
16505;HTU21D;8365;51.030;4.696;2023-05-07T10:12:23;18.51;118.99
16505;HTU21D;8365;51.030;4.696;2023-05-07T10:14:54;18.47;118.99
16505;HTU21D;8365;51.030;4.696;2023-05-07T10:17:25;18.72;118.99
16505;HTU21D;8365;51.030;4.696;2023-05-07T10:19:56;18.55;118.99
16505;HTU21D;8365;51.030;4.696;2023-05-07T10:22:34;18.49;118.99
16505;HTU21D;8365;51.030;4.696;2023-05-07T10:25:26;18.33;118.99
16505;HTU21D;8365;51.030;4.696;2023-05-07T10:28:06;18.29;118.99
16505;HTU21D;8365;51.030;4.696;2023-05-07T10:33:20;18.05;118.99
16505;HTU21D;8365;51.030;4.696;2023-05-07T10:35:57;18.40;118.99
16505;HTU21D;8365;51.030;4.696;2023-05-07T10:38:29;18.30;118.99
16505;HTU21D;8365;51.030;4.696;2023-05-07T10:41:00;18.38;118.99
16505;HTU21D;8365;51.030;4.696;2023-05-07T10:43:44;18.92;118.99
16505;HTU21D;8365;51.030;4.696;2023-05-07T10:46:20;19.16;118.99
16505;HTU21D;8365;51.030;4.696;2023-05-07T10:49:17;19.21;118.99
16505;HTU21D;8365;51.030;4.696;2023-05-07T10:52:10;19.09;118.99
16505;HTU21D;8365;51.030;4.696;2023-05-07T10:54:42;19.09;118.99
16505;HTU21D;8365;51.030;4.696;2023-05-07T11:05:32;19.16;118.99
16505;HTU21D;8365;51.030;4.696;2023-05-07T11:08:04;19.48;118.99
16505;HTU21D;8365;51.030;4.696;2023-05-07T11:10:54;19.68;118.99
16505;HTU21D;8365;51.030;4.696;2023-05-07T11:16:22;19.23;118.99
16505;HTU21D;8365;51.030;4.696;2023-05-07T11:18:56;19.62;118.99
16505;HTU21D;8365;51.030;4.696;2023-05-07T11:21:41;19.86;118.99
16505;HTU21D;8365;51.030;4.696;2023-05-07T11:24:14;19.61;118.99
16505;HTU21D;8365;51.030;4.696;2023-05-07T11:26:48;19.66;118.99
16505;HTU21D;8365;51.030;4.696;2023-05-07T11:29:20;19.44;118.99
16505;HTU21D;8365;51.030;4.696;2023-05-07T11:31:53;19.57;118.99
16505;HTU21D;8365;51.030;4.696;2023-05-07T11:34:26;19.05;118.99
16505;HTU21D;8365;51.030;4.696;2023-05-07T11:36:58;19.06;118.99
16505;HTU21D;8365;51.030;4.696;2023-05-07T11:39:30;19.52;118.99
16505;HTU21D;8365;51.030;4.696;2023-05-07T11:42:03;19.51;118.99
16505;HTU21D;8365;51.030;4.696;2023-05-07T11:44:42;19.66;118.99
16505;HTU21D;8365;51.030;4.696;2023-05-07T11:47:20;19.53;117.79
16505;HTU21D;8365;51.030;4.696;2023-05-07T11:49:53;19.94;116.65
16505;HTU21D;8365;51.030;4.696;2023-05-07T11:52:24;20.18;116.96
16505;HTU21D;8365;51.030;4.696;2023-05-07T11:54:56;20.40;114.78
16505;HTU21D;8365;51.030;4.696;2023-05-07T11:57:27;20.01;113.81
16505;HTU21D;8365;51.030;4.696;2023-05-07T11:59:59;20.11;114.97
16505;HTU21D;8365;51.030;4.696;2023-05-07T12:02:32;20.07;114.57
16505;HTU21D;8365;51.030;4.696;2023-05-07T12:05:05;20.40;114.97
16505;HTU21D;8365;51.030;4.696;2023-05-07T12:07:36;20.31;115.88
16505;HTU21D;8365;51.030;4.696;2023-05-07T12:10:06;20.55;113.19
16505;HTU21D;8365;51.030;4.696;2023-05-07T12:12:46;20.47;113.83
16505;HTU21D;8365;51.030;4.696;2023-05-07T12:15:17;20.45;113.11
16505;HTU21D;8365;51.030;4.696;2023-05-07T12:17:47;20.57;113.08
16505;HTU21D;8365;51.030;4.696;2023-05-07T12:20:19;20.65;112.20
16505;HTU21D;8365;51.030;4.696;2023-05-07T12:22:50;20.42;112.35
16505;HTU21D;8365;51.030;4.696;2023-05-07T12:25:22;20.05;114.29
16505;HTU21D;8365;51.030;4.696;2023-05-07T12:27:53;20.15;115.12
16505;HTU21D;8365;51.030;4.696;2023-05-07T12:30:23;20.20;115.44
16505;HTU21D;8365;51.030;4.696;2023-05-07T12:32:54;20.24;111.39
16505;HTU21D;8365;51.030;4.696;2023-05-07T12:35:32;20.60;109.61
16505;HTU21D;8365;51.030;4.696;2023-05-07T12:38:10;20.94;108.93
16505;HTU21D;8365;51.030;4.696;2023-05-07T12:40:43;21.16;109.36
16505;HTU21D;8365;51.030;4.696;2023-05-07T12:43:25;21.50;108.56
16505;HTU21D;8365;51.030;4.696;2023-05-07T12:45:57;21.63;107.98
16505;HTU21D;8365;51.030;4.696;2023-05-07T12:48:29;21.42;110.17
16505;HTU21D;8365;51.030;4.696;2023-05-07T12:51:01;21.62;108.51
16505;HTU21D;8365;51.030;4.696;2023-05-07T12:53:32;21.73;107.63
16505;HTU21D;8365;51.030;4.696;2023-05-07T12:56:05;21.54;107.24
16505;HTU21D;8365;51.030;4.696;2023-05-07T12:58:36;21.89;106.11
16505;HTU21D;8365;51.030;4.696;2023-05-07T13:01:08;21.92;105.79
16505;HTU21D;8365;51.030;4.696;2023-05-07T13:03:39;21.72;107.47
16505;HTU21D;8365;51.030;4.696;2023-05-07T13:06:10;21.90;106.46
16505;HTU21D;8365;51.030;4.696;2023-05-07T13:08:42;21.94;107.07
16505;HTU21D;8365;51.030;4.696;2023-05-07T13:11:15;21.65;105.72
16505;HTU21D;8365;51.030;4.696;2023-05-07T13:13:46;21.66;107.07
16505;HTU21D;8365;51.030;4.696;2023-05-07T13:16:16;21.69;105.76
16505;HTU21D;8365;51.030;4.696;2023-05-07T13:18:47;21.59;109.82
16505;HTU21D;8365;51.030;4.696;2023-05-07T13:21:17;21.51;108.58
16505;HTU21D;8365;51.030;4.696;2023-05-07T13:23:48;21.46;105.74
16505;HTU21D;8365;51.030;4.696;2023-05-07T13:26:18;21.58;103.44
16505;HTU21D;8365;51.030;4.696;2023-05-07T13:28:49;21.52;104.02
16505;HTU21D;8365;51.030;4.696;2023-05-07T13:31:19;21.91;103.12
16505;HTU21D;8365;51.030;4.696;2023-05-07T13:33:51;22.07;106.61
16505;HTU21D;8365;51.030;4.696;2023-05-07T13:36:22;22.20;106.69
16505;HTU21D;8365;51.030;4.696;2023-05-07T13:38:53;22.10;104.13
16505;HTU21D;8365;51.030;4.696;2023-05-07T13:41:23;22.27;103.10
16505;HTU21D;8365;51.030;4.696;2023-05-07T13:43:54;22.14;102.57
16505;HTU21D;8365;51.030;4.696;2023-05-07T13:46:24;22.16;103.29
16505;HTU21D;8365;51.030;4.696;2023-05-07T13:48:55;21.77;103.05
16505;HTU21D;8365;51.030;4.696;2023-05-07T13:51:26;21.80;102.41
16505;HTU21D;8365;51.030;4.696;2023-05-07T13:53:56;22.06;101.77
16505;HTU21D;8365;51.030;4.696;2023-05-07T13:56:28;22.27;99.65
16505;HTU21D;8365;51.030;4.696;2023-05-07T13:59:02;22.20;99.90
16505;HTU21D;8365;51.030;4.696;2023-05-07T14:01:33;22.12;101.99
16505;HTU21D;8365;51.030;4.696;2023-05-07T14:04:03;22.53;100.13
16505;HTU21D;8365;51.030;4.696;2023-05-07T14:06:34;22.55;100.35
16505;HTU21D;8365;51.030;4.696;2023-05-07T14:09:07;22.46;101.33
16505;HTU21D;8365;51.030;4.696;2023-05-07T14:11:37;22.67;102.94
16505;HTU21D;8365;51.030;4.696;2023-05-07T14:14:08;22.88;101.78
16505;HTU21D;8365;51.030;4.696;2023-05-07T14:16:41;22.82;99.42
16505;HTU21D;8365;51.030;4.696;2023-05-07T14:19:12;22.80;97.90
16505;HTU21D;8365;51.030;4.696;2023-05-07T14:21:42;22.40;99.09
16505;HTU21D;8365;51.030;4.696;2023-05-07T14:24:13;22.14;99.83
16505;HTU21D;8365;51.030;4.696;2023-05-07T14:26:43;22.20;100.85
16505;HTU21D;8365;51.030;4.696;2023-05-07T14:29:15;22.34;99.96
16505;HTU21D;8365;51.030;4.696;2023-05-07T14:31:48;22.27;101.60
16505;HTU21D;8365;51.030;4.696;2023-05-07T14:34:21;22.38;101.79
16505;HTU21D;8365;51.030;4.696;2023-05-07T14:36:52;22.09;102.60
16505;HTU21D;8365;51.030;4.696;2023-05-07T14:39:25;21.68;105.82
16505;HTU21D;8365;51.030;4.696;2023-05-07T14:41:57;22.03;103.32
16505;HTU21D;8365;51.030;4.696;2023-05-07T14:44:27;22.03;104.21
16505;HTU21D;8365;51.030;4.696;2023-05-07T14:46:58;21.87;106.21
16505;HTU21D;8365;51.030;4.696;2023-05-07T14:49:28;22.44;101.10
16505;HTU21D;8365;51.030;4.696;2023-05-07T14:51:59;22.71;101.29
16505;HTU21D;8365;51.030;4.696;2023-05-07T14:54:30;22.80;100.34
16505;HTU21D;8365;51.030;4.696;2023-05-07T14:57:01;22.72;99.74
16505;HTU21D;8365;51.030;4.696;2023-05-07T14:59:32;22.81;99.33
16505;HTU21D;8365;51.030;4.696;2023-05-07T15:02:02;22.78;101.44
16505;HTU21D;8365;51.030;4.696;2023-05-07T15:04:33;22.64;100.99
16505;HTU21D;8365;51.030;4.696;2023-05-07T15:07:04;22.83;101.38
16505;HTU21D;8365;51.030;4.696;2023-05-07T15:09:34;22.65;101.74
16505;HTU21D;8365;51.030;4.696;2023-05-07T15:12:05;22.67;101.98
16505;HTU21D;8365;51.030;4.696;2023-05-07T15:14:37;22.22;103.63
16505;HTU21D;8365;51.030;4.696;2023-05-07T15:17:10;22.69;100.99
16505;HTU21D;8365;51.030;4.696;2023-05-07T15:19:40;22.72;100.56
16505;HTU21D;8365;51.030;4.696;2023-05-07T15:22:13;22.83;99.25
16505;HTU21D;8365;51.030;4.696;2023-05-07T15:24:44;22.67;97.85
16505;HTU21D;8365;51.030;4.696;2023-05-07T15:27:14;22.49;99.39
16505;HTU21D;8365;51.030;4.696;2023-05-07T15:29:46;22.72;98.89
16505;HTU21D;8365;51.030;4.696;2023-05-07T15:32:16;22.71;99.63
16505;HTU21D;8365;51.030;4.696;2023-05-07T15:34:47;22.44;104.10
16505;HTU21D;8365;51.030;4.696;2023-05-07T15:37:17;22.44;104.51
16505;HTU21D;8365;51.030;4.696;2023-05-07T15:39:48;22.46;101.15
16505;HTU21D;8365;51.030;4.696;2023-05-07T15:42:18;22.47;101.82
16505;HTU21D;8365;51.030;4.696;2023-05-07T15:44:51;22.53;101.75
16505;HTU21D;8365;51.030;4.696;2023-05-07T15:47:24;22.42;102.56
16505;HTU21D;8365;51.030;4.696;2023-05-07T15:49:55;22.48;101.38
16505;HTU21D;8365;51.030;4.696;2023-05-07T15:52:25;22.08;101.37
16505;HTU21D;8365;51.030;4.696;2023-05-07T15:54:57;21.99;101.41
16505;HTU21D;8365;51.030;4.696;2023-05-07T15:57:27;22.22;100.15